createdAt,value
2022-11-12T00:01:15.662Z,4.30
2022-11-12T00:04:01.285Z,6.90
2022-11-12T00:06:46.958Z,5.20
2022-11-12T00:09:32.248Z,6.10
2022-11-12T00:12:17.709Z,7.00
2022-11-12T00:15:03.206Z,4.20
2022-11-12T00:17:48.625Z,4.10
2022-11-12T00:20:34.785Z,5.50
2022-11-12T00:23:20.405Z,5.20
2022-11-12T00:26:06.187Z,6.00
2022-11-12T00:28:51.648Z,5.10
2022-11-12T00:31:37.750Z,4.30
2022-11-12T00:34:23.264Z,4.90
2022-11-12T00:37:08.940Z,5.30
2022-11-12T00:39:54.604Z,5.10
2022-11-12T00:42:40.359Z,3.70
2022-11-12T00:45:25.872Z,6.10
2022-11-12T00:48:11.182Z,4.80
2022-11-12T00:51:01.456Z,3.70
2022-11-12T00:53:50.912Z,6.40
2022-11-12T00:56:36.602Z,6.30
2022-11-12T00:59:22.592Z,3.50
2022-11-12T01:02:08.079Z,5.20
2022-11-12T01:04:53.716Z,6.40
2022-11-12T01:16:28.325Z,3.50
2022-11-12T01:19:14.185Z,6.20
2022-11-12T01:21:59.676Z,3.60
2022-11-12T01:24:45.204Z,4.50
2022-11-12T01:27:30.697Z,6.00
2022-11-12T01:30:16.558Z,6.50
2022-11-12T01:33:02.199Z,3.50
2022-11-12T01:35:47.920Z,4.90
2022-11-12T01:38:38.485Z,6.50
2022-11-12T01:41:26.874Z,3.50
2022-11-12T01:44:41.215Z,5.10
2022-11-12T01:47:33.119Z,3.40
2022-11-12T01:50:34.109Z,3.40
2022-11-12T01:53:21.872Z,3.60
2022-11-12T01:56:08.012Z,5.40
2022-11-12T01:59:01.674Z,6.30
2022-11-12T02:01:47.197Z,6.30
2022-11-12T02:04:34.622Z,5.10
2022-11-12T02:07:23.515Z,3.80
2022-11-12T02:10:10.221Z,6.10
2022-11-12T02:13:14.704Z,3.20
2022-11-12T02:16:00.135Z,4.10
2022-11-12T02:18:45.553Z,5.30
2022-11-12T02:21:31.487Z,4.70
2022-11-12T02:24:17.001Z,3.00
2022-11-12T02:27:03.413Z,5.60
2022-11-12T02:29:48.976Z,5.20
2022-11-12T02:32:34.849Z,3.70
2022-11-12T02:35:20.220Z,5.10
2022-11-12T02:38:07.149Z,4.20
2022-11-12T02:40:53.016Z,5.80
2022-11-12T02:43:38.914Z,5.30
2022-11-12T02:46:24.806Z,2.80
2022-11-12T02:49:10.345Z,4.30
2022-11-12T02:51:55.712Z,5.70
2022-11-12T02:54:41.071Z,5.00
2022-11-12T02:57:26.861Z,3.20
2022-11-12T03:00:13.530Z,6.00
2022-11-12T03:03:01.876Z,2.90
2022-11-12T03:05:58.969Z,2.90
2022-11-12T03:08:44.757Z,5.80
2022-11-12T03:11:30.273Z,2.90
2022-11-12T03:14:15.849Z,5.80
2022-11-12T03:17:01.159Z,3.70
2022-11-12T03:19:46.744Z,4.50
2022-11-12T03:22:32.229Z,4.10
2022-11-12T03:25:17.904Z,2.30
2022-11-12T03:28:08.868Z,3.10
2022-11-12T03:30:58.739Z,5.20
2022-11-12T03:33:44.423Z,3.20
2022-11-12T03:36:29.889Z,3.40
2022-11-12T03:39:15.292Z,5.10
2022-11-12T03:42:00.865Z,4.90
2022-11-12T03:44:46.851Z,5.50
2022-11-12T03:47:32.196Z,5.20
2022-11-12T03:50:20.244Z,5.10
2022-11-12T03:53:05.890Z,3.10
2022-11-12T03:55:51.312Z,5.20
2022-11-12T03:58:36.716Z,4.00
2022-11-12T04:01:22.431Z,5.60
2022-11-12T04:04:07.946Z,5.40
2022-11-12T04:07:11.922Z,5.20
2022-11-12T04:09:57.441Z,4.90
2022-11-12T04:13:01.391Z,4.60
2022-11-12T04:16:06.806Z,5.20
2022-11-12T04:19:14.489Z,5.00
2022-11-12T04:22:07.259Z,3.00
2022-11-12T04:25:11.254Z,3.00
2022-11-12T04:27:56.701Z,3.00
2022-11-12T04:30:41.979Z,4.40
2022-11-12T04:33:27.465Z,5.00
2022-11-12T04:36:13.171Z,5.60
2022-11-12T04:38:58.539Z,5.10
2022-11-12T04:42:02.621Z,3.30
2022-11-12T04:44:59.955Z,6.40
2022-11-12T04:47:46.412Z,6.10
2022-11-12T04:50:31.788Z,6.00
2022-11-12T04:53:17.334Z,3.70
2022-11-12T04:56:03.127Z,4.80
2022-11-12T04:58:48.757Z,3.40
2022-11-12T05:01:34.269Z,6.50
2022-11-12T05:04:19.740Z,5.10
2022-11-12T05:07:05.370Z,5.20
2022-11-12T05:09:51.267Z,5.10
2022-11-12T05:12:37.268Z,5.30
2022-11-12T05:15:22.896Z,3.50
2022-11-12T05:18:08.371Z,5.70
2022-11-12T05:20:53.991Z,6.60
2022-11-12T05:23:39.759Z,6.50
2022-11-12T05:26:25.283Z,6.20
2022-11-12T05:29:11.055Z,5.90
2022-11-12T05:31:56.515Z,5.10
2022-11-12T05:34:42.416Z,5.40
2022-11-12T05:37:28.207Z,4.20
2022-11-12T05:40:13.897Z,6.60
2022-11-12T05:42:59.351Z,3.50
2022-11-12T05:45:45.090Z,6.10
2022-11-12T05:48:31.571Z,3.40
2022-11-12T05:51:17.146Z,5.20
2022-11-12T05:54:02.993Z,4.90
2022-11-12T05:56:48.608Z,4.50
2022-11-12T05:59:34.250Z,5.40
2022-11-12T06:02:19.899Z,6.40
2022-11-12T06:05:05.594Z,6.40
2022-11-12T06:07:50.911Z,3.40
2022-11-12T06:10:36.612Z,5.30
2022-11-12T06:13:23.905Z,4.80
2022-11-12T06:16:09.930Z,4.70
2022-11-12T06:18:55.767Z,5.80
2022-11-12T06:21:41.075Z,5.50
2022-11-12T06:24:30.660Z,4.30
2022-11-12T06:27:19.265Z,5.10
2022-11-12T06:30:09.124Z,4.30
2022-11-12T06:32:54.739Z,3.30
2022-11-12T06:35:43.171Z,3.70
2022-11-12T06:38:33.947Z,5.50
2022-11-12T06:41:19.456Z,3.70
2022-11-12T06:44:05.272Z,5.20
2022-11-12T06:46:50.888Z,3.30
2022-11-12T06:49:36.425Z,4.40
2022-11-12T06:52:21.793Z,4.40
2022-11-12T06:55:08.627Z,5.50
2022-11-12T06:57:54.331Z,3.10
2022-11-12T07:00:39.922Z,5.20
2022-11-12T07:03:25.400Z,5.20
2022-11-12T07:06:14.154Z,3.90
2022-11-12T07:08:59.545Z,4.30
2022-11-12T07:11:44.969Z,5.50
2022-11-12T07:14:30.311Z,3.30
2022-11-12T07:17:16.100Z,5.30
2022-11-12T07:20:03.860Z,5.10
2022-11-12T07:22:49.792Z,4.80
2022-11-12T07:25:35.348Z,4.00
2022-11-12T07:28:20.531Z,5.10
2022-11-12T07:31:08.453Z,4.30
2022-11-12T07:33:53.964Z,5.60
2022-11-12T07:36:39.281Z,5.50
2022-11-12T07:39:24.645Z,4.90
2022-11-12T07:42:10.100Z,5.60
2022-11-12T07:44:55.577Z,5.20
2022-11-12T07:47:41.166Z,4.10
2022-11-12T07:50:26.811Z,4.70
2022-11-12T07:53:12.006Z,4.40
2022-11-12T07:56:00.555Z,4.70
2022-11-12T07:58:46.441Z,5.60
2022-11-12T08:01:40.841Z,6.00
2022-11-12T08:04:26.438Z,4.20
2022-11-12T08:07:11.802Z,5.40
2022-11-12T08:09:58.470Z,5.10
2022-11-12T08:12:43.886Z,6.40
2022-11-12T08:15:29.473Z,5.20
2022-11-12T08:18:14.932Z,5.30
2022-11-12T08:21:05.906Z,4.90
2022-11-12T08:23:51.801Z,4.90
2022-11-12T08:26:37.033Z,5.00
2022-11-12T08:29:25.484Z,5.30
2022-11-12T08:32:11.023Z,5.20
2022-11-12T08:34:56.281Z,5.30
2022-11-12T08:37:41.606Z,6.70
2022-11-12T08:40:32.152Z,6.00
2022-11-12T08:43:17.662Z,5.80
2022-11-12T08:46:04.124Z,5.90
2022-11-12T08:48:49.984Z,6.10
2022-11-12T08:51:35.102Z,6.40
2022-11-12T08:54:21.115Z,7.50
2022-11-12T08:57:06.407Z,6.90
2022-11-12T08:59:52.078Z,7.10
2022-11-12T09:02:37.330Z,7.30
2022-11-12T09:05:23.074Z,8.80
2022-11-12T09:08:11.836Z,7.70
2022-11-12T09:10:58.340Z,7.90
2022-11-12T09:13:44.139Z,8.00
2022-11-12T09:16:29.949Z,8.10
2022-11-12T09:19:15.183Z,8.20
2022-11-12T09:22:00.863Z,8.40
2022-11-12T09:24:46.250Z,8.50
2022-11-12T09:27:31.895Z,8.70
2022-11-12T09:30:17.610Z,8.80
2022-11-12T09:33:02.882Z,8.90
2022-11-12T09:35:48.778Z,9.10
2022-11-12T09:38:34.574Z,9.30
2022-11-12T09:41:29.837Z,9.40
2022-11-12T09:44:24.558Z,9.50
2022-11-12T09:47:20.771Z,9.70
2022-11-12T09:50:28.626Z,9.70
2022-11-12T09:53:30.470Z,9.90
2022-11-12T09:56:19.229Z,10.00
2022-11-12T09:59:09.508Z,9.90
2022-11-12T10:06:19.112Z,10.00
2022-11-12T10:09:19.672Z,10.00
2022-11-12T10:16:56.057Z,10.00
2022-11-12T10:20:01.491Z,10.00
2022-11-12T10:22:49.590Z,10.10
2022-11-12T10:26:40.113Z,10.00
2022-11-12T10:29:31.148Z,10.00
2022-11-12T10:32:17.698Z,9.90
2022-11-12T10:35:04.008Z,9.90
2022-11-12T10:38:07.394Z,9.90
2022-11-12T10:40:52.885Z,9.90
2022-11-12T10:43:38.365Z,9.90
2022-11-12T10:46:30.187Z,9.90
2022-11-12T10:49:28.885Z,10.00
2022-11-12T10:52:24.516Z,10.10
2022-11-12T10:55:31.261Z,10.20
2022-11-12T10:58:21.695Z,10.30
2022-11-12T11:01:16.029Z,10.30
2022-11-12T11:04:01.557Z,10.40
2022-11-12T11:06:46.926Z,10.50
2022-11-12T11:09:51.481Z,10.50
2022-11-12T11:12:37.229Z,10.50
2022-11-12T11:15:25.557Z,10.50
2022-11-12T11:18:14.530Z,10.60
2022-11-12T11:21:18.588Z,10.60
2022-11-12T11:24:04.408Z,10.70
2022-11-12T11:26:56.203Z,10.70
2022-11-12T11:30:08.198Z,10.80
2022-11-12T11:37:22.888Z,10.90
2022-11-12T11:40:26.969Z,11.20
2022-11-12T11:44:04.056Z,11.20
2022-11-12T11:46:55.825Z,11.30
2022-11-12T11:49:53.616Z,11.40
2022-11-12T11:53:12.615Z,11.40
2022-11-12T11:56:01.761Z,11.50
2022-11-12T11:59:10.864Z,11.60
2022-11-12T12:02:11.953Z,11.70
2022-11-12T12:05:31.519Z,11.70
2022-11-12T12:08:55.913Z,11.70
2022-11-12T12:11:53.745Z,11.80
2022-11-12T12:15:13.073Z,11.90
2022-11-12T12:18:04.211Z,11.80
2022-11-12T12:21:05.951Z,11.80
2022-11-12T12:23:53.795Z,11.70
2022-11-12T12:26:48.341Z,11.60
2022-11-12T12:29:40.825Z,11.60
2022-11-12T12:32:55.832Z,11.50
2022-11-12T12:35:54.992Z,11.60
2022-11-12T12:38:53.283Z,11.50
2022-11-12T12:42:00.322Z,11.50
2022-11-12T12:45:14.753Z,11.60
2022-11-12T12:48:01.502Z,11.60
2022-11-12T12:50:48.670Z,11.60
2022-11-12T12:53:36.298Z,11.70
2022-11-12T12:56:24.461Z,11.80
2022-11-12T12:59:41.428Z,11.80
2022-11-12T13:02:26.598Z,11.80
2022-11-12T13:05:41.715Z,11.80
2022-11-12T13:08:27.582Z,11.80
2022-11-12T13:12:00.981Z,11.90
2022-11-12T13:14:52.261Z,11.90
2022-11-12T13:18:34.155Z,11.90
2022-11-12T13:21:21.428Z,11.80
2022-11-12T13:24:12.692Z,11.90
2022-11-12T13:26:59.960Z,11.80
2022-11-12T13:29:47.795Z,11.90
2022-11-12T13:32:51.602Z,11.80
2022-11-12T13:35:39.615Z,11.80
2022-11-12T13:38:26.376Z,11.70
2022-11-12T13:41:19.639Z,11.70
2022-11-12T13:44:09.932Z,11.70
2022-11-12T13:46:56.124Z,11.60
2022-11-12T13:49:44.202Z,11.70
2022-11-12T13:52:30.417Z,11.60
2022-11-12T13:55:21.639Z,11.60
2022-11-12T13:58:48.702Z,11.50
2022-11-12T14:01:34.592Z,11.50
2022-11-12T14:04:26.612Z,11.40
2022-11-12T14:07:54.704Z,11.30
2022-11-12T14:10:46.553Z,11.30
2022-11-12T14:18:26.796Z,11.00
2022-11-12T14:21:22.073Z,10.90
2022-11-12T14:24:12.453Z,10.80
2022-11-12T14:26:57.805Z,10.80
2022-11-12T14:29:43.936Z,10.70
2022-11-12T14:32:36.947Z,10.60
2022-11-12T14:35:25.349Z,10.60
2022-11-12T14:38:19.842Z,10.50
2022-11-12T14:45:19.661Z,10.40
2022-11-12T14:48:09.764Z,10.20
2022-11-12T14:51:09.486Z,10.20
2022-11-12T14:54:02.521Z,10.00
2022-11-12T14:56:49.381Z,10.00
2022-11-12T14:59:36.565Z,9.90
2022-11-12T15:02:47.196Z,9.80
2022-11-12T15:05:37.573Z,9.70
2022-11-12T15:08:38.356Z,9.70
2022-11-12T15:11:31.981Z,9.60
2022-11-12T15:14:26.773Z,9.50
2022-11-12T15:17:33.980Z,9.40
2022-11-12T15:20:20.602Z,9.30
2022-11-12T15:23:06.477Z,9.20
2022-11-12T15:25:59.753Z,9.10
2022-11-12T15:29:03.216Z,9.00
2022-11-12T15:36:04.312Z,8.80
2022-11-12T15:39:19.902Z,8.70
2022-11-12T15:42:28.599Z,8.60
2022-11-12T15:45:23.175Z,8.50
2022-11-12T15:48:11.775Z,8.40
2022-11-12T15:50:57.844Z,8.30
2022-11-12T15:53:43.576Z,7.40
2022-11-12T15:56:30.274Z,8.50
2022-11-12T15:59:18.119Z,8.10
2022-11-12T16:02:03.843Z,8.00
2022-11-12T16:04:49.336Z,7.90
2022-11-12T16:08:00.002Z,7.90
2022-11-12T16:10:47.111Z,7.80
2022-11-12T16:13:36.727Z,7.70
2022-11-12T16:16:27.508Z,7.60
2022-11-12T16:19:14.956Z,7.60
2022-11-12T16:22:01.634Z,7.60
2022-11-12T16:24:47.309Z,7.50
2022-11-12T16:27:33.231Z,7.40
2022-11-12T16:30:22.790Z,7.30
2022-11-12T16:33:11.315Z,7.30
2022-11-12T16:35:56.889Z,7.50
2022-11-12T16:38:43.078Z,7.80
2022-11-12T16:41:28.387Z,7.90
2022-11-12T16:44:14.019Z,7.00
2022-11-12T16:47:20.223Z,6.90
2022-11-12T16:50:06.468Z,6.90
2022-11-12T16:52:53.017Z,6.80
2022-11-12T16:55:38.648Z,6.80
2022-11-12T16:58:24.395Z,6.80
2022-11-12T17:01:23.490Z,6.70
2022-11-12T17:04:09.117Z,6.70
2022-11-12T17:06:54.532Z,6.60
2022-11-12T17:13:59.302Z,6.60
2022-11-12T17:17:44.073Z,6.50
2022-11-12T17:20:29.499Z,6.40
2022-11-12T17:23:36.771Z,7.20
2022-11-12T17:26:22.741Z,6.30
2022-11-12T17:29:08.772Z,7.90
2022-11-12T17:36:26.748Z,6.10
2022-11-12T17:39:13.060Z,7.30
2022-11-12T17:41:58.597Z,6.00
2022-11-12T17:44:46.284Z,7.90
2022-11-12T17:47:34.574Z,7.40
2022-11-12T17:50:22.242Z,8.10
2022-11-12T17:53:07.661Z,5.90
2022-11-12T17:55:57.138Z,5.90
2022-11-12T17:58:42.748Z,6.10
2022-11-12T18:01:30.088Z,7.10
2022-11-12T18:04:15.600Z,7.80
2022-11-12T18:07:01.193Z,5.90
2022-11-12T18:09:47.224Z,5.70
2022-11-12T18:12:32.568Z,5.70
2022-11-12T18:15:18.232Z,5.70
2022-11-12T18:18:04.514Z,5.70
2022-11-12T18:20:50.750Z,5.60
2022-11-12T18:23:38.330Z,7.20
2022-11-12T18:26:23.709Z,7.70
2022-11-12T18:29:09.171Z,6.10
2022-11-12T18:31:54.419Z,5.50
2022-11-12T18:34:44.609Z,5.40
2022-11-12T18:37:30.060Z,5.40
2022-11-12T18:40:16.116Z,5.40
2022-11-12T18:43:01.504Z,5.30
2022-11-12T18:45:54.509Z,7.30
2022-11-12T18:48:40.693Z,5.20
2022-11-12T18:51:27.357Z,6.30
2022-11-12T18:54:12.847Z,5.20
2022-11-12T18:56:58.445Z,5.10
2022-11-12T18:59:43.788Z,5.10
2022-11-12T19:02:29.269Z,5.10
2022-11-12T19:05:15.130Z,6.70
2022-11-12T19:08:23.315Z,5.00
2022-11-12T19:11:11.668Z,5.00
2022-11-12T19:14:02.235Z,4.90
2022-11-12T19:16:47.594Z,7.60
2022-11-12T19:19:33.128Z,5.10
2022-11-12T19:22:18.548Z,4.70
2022-11-12T19:25:04.698Z,4.70
2022-11-12T19:27:50.058Z,4.70
2022-11-12T19:30:46.909Z,7.00
2022-11-12T19:33:33.484Z,7.50
2022-11-12T19:36:22.221Z,4.60
2022-11-12T19:39:08.129Z,7.00
2022-11-12T19:41:53.584Z,4.50
2022-11-12T19:44:39.056Z,4.80
2022-11-12T19:47:24.477Z,5.10
2022-11-12T19:50:14.876Z,5.40
2022-11-12T19:53:00.946Z,4.40
2022-11-12T19:55:46.654Z,4.80
2022-11-12T19:58:46.759Z,4.40
2022-11-12T20:01:32.422Z,6.80
2022-11-12T20:04:22.980Z,6.80
2022-11-12T20:07:09.606Z,5.70
2022-11-12T20:10:00.702Z,6.90
2022-11-12T20:13:11.948Z,5.00
2022-11-12T20:15:57.515Z,4.20
2022-11-12T20:18:45.265Z,5.80
2022-11-12T20:21:32.861Z,5.10
2022-11-12T20:24:18.422Z,6.20
2022-11-12T20:27:05.733Z,4.00
2022-11-12T20:29:51.216Z,5.20
2022-11-12T20:32:36.507Z,6.60
2022-11-12T20:35:23.292Z,4.00
2022-11-12T20:38:08.818Z,6.70
2022-11-12T20:40:59.068Z,6.50
2022-11-12T20:43:47.410Z,6.70
2022-11-12T20:46:33.117Z,4.30
2022-11-12T20:49:18.620Z,6.70
2022-11-12T20:52:04.130Z,4.80
2022-11-12T20:54:49.626Z,3.80
2022-11-12T20:57:35.009Z,5.20
2022-11-12T21:00:24.332Z,4.30
2022-11-12T21:03:10.158Z,3.70
2022-11-12T21:06:01.274Z,4.90
2022-11-12T21:08:47.373Z,5.30
2022-11-12T21:11:32.957Z,4.70
2022-11-12T21:14:18.336Z,6.50
2022-11-12T21:17:03.824Z,5.50
2022-11-12T21:19:49.321Z,5.70
2022-11-12T21:22:34.817Z,5.30
2022-11-12T21:25:20.265Z,4.40
2022-11-12T21:28:06.455Z,4.50
2022-11-12T21:30:52.919Z,5.30
2022-11-12T21:33:40.074Z,4.90
2022-11-12T21:36:28.402Z,4.70
2022-11-12T21:39:14.313Z,4.60
2022-11-12T21:41:59.802Z,6.30
2022-11-12T21:44:47.126Z,5.70
2022-11-12T21:47:32.900Z,5.30
2022-11-12T21:50:18.793Z,3.80
2022-11-12T21:54:08.961Z,3.40
2022-11-12T21:56:55.015Z,3.30
2022-11-12T21:59:40.771Z,5.40
2022-11-12T22:02:26.667Z,3.30
2022-11-12T22:09:31.196Z,3.20
2022-11-12T22:12:17.291Z,3.20
2022-11-12T22:15:03.885Z,3.10
2022-11-12T22:22:16.529Z,3.10
2022-11-12T22:25:02.688Z,3.00
2022-11-12T22:27:48.009Z,4.70
2022-11-12T22:30:33.433Z,4.10
2022-11-12T22:33:20.055Z,4.40
2022-11-12T22:36:09.349Z,3.00
2022-11-12T22:38:56.117Z,2.90
2022-11-12T22:41:41.973Z,4.20
2022-11-12T22:44:27.238Z,2.90
2022-11-12T22:47:12.700Z,4.20
2022-11-12T22:49:58.310Z,4.10
2022-11-12T22:52:49.874Z,4.10
2022-11-12T22:55:35.966Z,4.80
2022-11-12T22:58:22.315Z,3.90
2022-11-12T23:01:40.495Z,3.90
2022-11-12T23:04:26.319Z,2.80
2022-11-12T23:07:11.853Z,4.30
2022-11-12T23:09:57.537Z,5.20
2022-11-12T23:12:43.313Z,2.80
2022-11-12T23:15:29.958Z,3.60
2022-11-12T23:18:15.443Z,5.30
2022-11-12T23:21:07.297Z,2.70
2022-11-12T23:23:53.120Z,2.60
2022-11-12T23:26:38.598Z,3.90
2022-11-12T23:29:24.382Z,4.70
2022-11-12T23:32:09.884Z,2.60
2022-11-12T23:34:55.373Z,4.90
2022-11-12T23:37:40.796Z,4.90
2022-11-12T23:40:30.974Z,5.40
2022-11-12T23:43:16.563Z,4.70
2022-11-12T23:46:02.097Z,4.10
2022-11-12T23:48:48.007Z,5.20
2022-11-12T23:51:33.452Z,5.60
2022-11-12T23:54:19.323Z,5.70
2022-11-12T23:57:04.783Z,2.50
2022-11-12T23:59:50.478Z,3.30
